Time;durP1;ratioP1;P1;durP2;ratioP2;P2;SDS_P1;SDS_P2;PMS_P1;PMS_P2;Temp;Humidity;BMP_temperature;BMP_pressure;BME280_temperature;BME280_humidity;BME280_pressure;Samples;Min_cycle;Max_cycle;Signal;HPM_P1;HPM_P2
2023/01/13 00:00:48;;;;;;;4.32;0.63;;;9.90;99.90;;;;;;5040350;28;20030;-69
2023/01/13 00:03:14;;;;;;;3.40;0.85;;;9.80;99.90;;;;;;5044841;28;20033;-69
2023/01/13 00:05:40;;;;;;;3.22;0.50;;;9.90;99.90;;;;;;5040030;28;20045;-70
2023/01/13 00:08:05;;;;;;;4.15;0.68;;;9.90;99.90;;;;;;5037553;28;20095;-69
2023/01/13 00:10:32;;;;;;;1.08;0.85;;;9.90;99.90;;;;;;5040602;28;20059;-67
2023/01/13 00:12:58;;;;;;;4.18;0.63;;;10.00;99.90;;;;;;5036078;28;20040;-70
2023/01/13 00:15:24;;;;;;;1.45;0.40;;;10.00;99.90;;;;;;5046922;28;20076;-70
2023/01/13 00:17:49;;;;;;;0.68;0.47;;;10.00;99.90;;;;;;5033385;28;20056;-70
2023/01/13 00:20:15;;;;;;;3.03;0.55;;;10.10;99.90;;;;;;5035552;28;20079;-70
2023/01/13 00:22:41;;;;;;;1.92;0.60;;;10.10;99.90;;;;;;5041754;28;20029;-70
2023/01/13 00:25:07;;;;;;;3.65;0.60;;;10.10;99.90;;;;;;5041346;28;20044;-68
2023/01/13 00:27:33;;;;;;;3.47;0.40;;;10.00;99.90;;;;;;5049579;28;20112;-70
2023/01/13 00:29:58;;;;;;;3.90;0.60;;;9.90;99.90;;;;;;5044453;28;20123;-70
2023/01/13 00:32:24;;;;;;;1.27;0.40;;;10.00;99.90;;;;;;5040041;28;20460;-70
2023/01/13 00:34:50;;;;;;;1.73;0.50;;;9.90;99.90;;;;;;5032980;28;20045;-71
2023/01/13 00:37:16;;;;;;;5.53;0.60;;;9.90;99.90;;;;;;5042553;28;20033;-71
2023/01/13 00:39:41;;;;;;;5.43;0.57;;;9.90;99.90;;;;;;5046069;28;20036;-70
2023/01/13 00:44:51;;;;;;;1.80;0.80;;;9.90;99.90;;;;;;5039436;28;20136;-71
2023/01/13 00:47:17;;;;;;;1.63;0.43;;;9.90;99.90;;;;;;5045174;28;20446;-70
2023/01/13 00:49:43;;;;;;;1.35;0.35;;;9.90;99.90;;;;;;5043167;28;20092;-71
2023/01/13 00:52:10;;;;;;;1.73;0.55;;;9.90;99.90;;;;;;5039414;28;20029;-70
2023/01/13 00:54:36;;;;;;;2.83;0.63;;;9.90;99.90;;;;;;5034854;28;20099;-69
2023/01/13 00:57:03;;;;;;;1.95;0.40;;;9.80;99.90;;;;;;5041941;28;20484;-71
2023/01/13 00:59:28;;;;;;;3.45;0.82;;;9.80;99.90;;;;;;5040517;28;20055;-71
2023/01/13 01:01:54;;;;;;;3.05;0.63;;;9.80;99.90;;;;;;5038762;28;20053;-71
2023/01/13 01:04:19;;;;;;;4.68;0.70;;;9.80;99.90;;;;;;5033651;28;20454;-70
2023/01/13 01:06:45;;;;;;;4.07;0.50;;;9.90;99.90;;;;;;5042180;28;20033;-71
2023/01/13 01:09:15;;;;;;;2.95;0.40;;;9.90;99.90;;;;;;5047568;28;20398;-70
2023/01/13 01:11:41;;;;;;;3.38;0.50;;;9.90;99.90;;;;;;5037182;28;20079;-70
2023/01/13 01:14:10;;;;;;;3.92;0.50;;;9.90;99.90;;;;;;5038922;28;20029;-70
2023/01/13 01:16:38;;;;;;;4.32;1.25;;;10.00;99.90;;;;;;5040522;28;20021;-70
2023/01/13 01:19:04;;;;;;;1.95;0.50;;;10.00;99.90;;;;;;5037804;28;20056;-70
2023/01/13 01:21:30;;;;;;;2.47;0.50;;;10.10;99.90;;;;;;5038404;28;20426;-71
2023/01/13 01:23:59;;;;;;;2.47;0.40;;;10.00;99.90;;;;;;5035943;28;20032;-70
2023/01/13 01:26:26;;;;;;;2.72;0.47;;;10.10;99.90;;;;;;5037339;28;20041;-70
2023/01/13 01:28:53;;;;;;;1.00;0.50;;;10.20;99.90;;;;;;5039934;28;20481;-70
2023/01/13 01:31:27;;;;;;;1.63;0.43;;;10.20;99.90;;;;;;5038952;28;20493;-69
2023/01/13 01:33:54;;;;;;;1.23;0.40;;;10.20;99.90;;;;;;5040516;28;20083;-70
2023/01/13 01:36:21;;;;;;;2.10;0.40;;;10.20;99.90;;;;;;5038820;28;20025;-71
2023/01/13 01:38:48;;;;;;;3.95;0.50;;;10.20;99.90;;;;;;5035609;28;20462;-72
2023/01/13 01:41:22;;;;;;;1.13;0.50;;;10.20;99.90;;;;;;5039355;28;20042;-71
2023/01/13 01:44:02;;;;;;;1.92;0.50;;;10.20;99.90;;;;;;5040587;28;20485;-70
2023/01/13 01:46:29;;;;;;;1.70;0.35;;;10.30;99.90;;;;;;5042666;28;20482;-70
2023/01/13 01:49:04;;;;;;;1.30;0.30;;;10.30;99.90;;;;;;5034670;28;20477;-71
2023/01/13 01:51:33;;;;;;;2.15;0.30;;;10.30;99.90;;;;;;5040920;28;20025;-71
2023/01/13 01:54:00;;;;;;;1.42;0.50;;;10.30;99.90;;;;;;5041897;28;20052;-71
2023/01/13 01:56:26;;;;;;;0.63;0.38;;;10.40;99.90;;;;;;5042927;28;20052;-71
2023/01/13 01:58:53;;;;;;;1.55;0.52;;;10.40;99.90;;;;;;5041056;28;20021;-71
2023/01/13 02:01:19;;;;;;;2.22;0.45;;;10.40;99.90;;;;;;5041982;28;20033;-71
2023/01/13 02:03:51;;;;;;;2.78;0.50;;;10.40;99.90;;;;;;5037679;28;20029;-71
2023/01/13 02:06:18;;;;;;;1.92;0.60;;;10.40;99.90;;;;;;5045369;28;20029;-70
2023/01/13 02:08:44;;;;;;;2.47;0.68;;;10.30;99.90;;;;;;5041149;28;20030;-69
2023/01/13 02:14:18;;;;;;;2.15;0.68;;;10.30;99.90;;;;;;5046734;28;20060;-71
2023/01/13 02:16:57;;;;;;;2.63;0.43;;;10.30;99.90;;;;;;5043111;28;20057;-70
2023/01/13 02:19:42;;;;;;;1.83;0.35;;;10.30;99.90;;;;;;5041545;28;20025;-70
2023/01/13 02:22:48;;;;;;;0.50;0.30;;;10.30;99.90;;;;;;5039319;28;20033;-70
2023/01/13 02:25:32;;;;;;;2.20;0.40;;;10.30;99.90;;;;;;5045984;28;20507;-69
2023/01/13 02:28:22;;;;;;;1.88;0.57;;;10.30;99.90;;;;;;5041674;28;20067;-70
2023/01/13 02:34:00;;;;;;;1.52;0.40;;;10.30;99.90;;;;;;5042283;28;20071;-70
2023/01/13 02:36:38;;;;;;;2.13;0.52;;;10.30;99.90;;;;;;5042657;28;20017;-70
2023/01/13 02:39:32;;;;;;;0.85;0.32;;;10.30;99.90;;;;;;5045272;28;20485;-70
2023/01/13 02:44:56;;;;;;;2.33;0.57;;;10.30;99.90;;;;;;5040982;28;20083;-70
2023/01/13 02:47:25;;;;;;;3.63;0.68;;;10.30;99.90;;;;;;5043123;28;20428;-69
2023/01/13 02:49:59;;;;;;;2.05;0.65;;;10.30;99.90;;;;;;5043075;28;20021;-70
2023/01/13 02:52:34;;;;;;;2.28;0.40;;;10.30;99.90;;;;;;5042990;28;20089;-70
2023/01/13 02:55:06;;;;;;;2.53;0.45;;;10.30;99.90;;;;;;5040814;28;20083;-69
2023/01/13 02:57:34;;;;;;;2.65;0.50;;;10.30;99.90;;;;;;5038718;28;20065;-70
2023/01/13 03:00:01;;;;;;;1.48;0.40;;;10.30;99.90;;;;;;5033895;28;20025;-70
2023/01/13 03:02:27;;;;;;;1.80;0.60;;;10.30;99.90;;;;;;5039107;28;20037;-70
2023/01/13 03:04:58;;;;;;;2.15;0.60;;;10.30;99.90;;;;;;5047551;28;20064;-70
2023/01/13 03:07:55;;;;;;;2.67;0.55;;;10.30;99.90;;;;;;5036371;28;20035;-70
2023/01/13 03:11:02;;;;;;;2.03;0.32;;;10.30;99.90;;;;;;5034534;28;20022;-70
2023/01/13 03:13:52;;;;;;;1.77;0.38;;;10.30;99.90;;;;;;4981094;28;20026;-70
2023/01/13 03:16:28;;;;;;;1.50;0.45;;;10.30;99.90;;;;;;4985371;28;20085;-70
2023/01/13 03:19:27;;;;;;;1.92;0.50;;;10.20;99.90;;;;;;4986925;28;20046;-71
2023/01/13 03:22:07;;;;;;;2.90;0.40;;;10.20;99.90;;;;;;4978630;28;20035;-70
2023/01/13 03:24:41;;;;;;;2.33;0.50;;;10.20;99.90;;;;;;4979853;28;20054;-70
2023/01/13 03:27:14;;;;;;;1.40;0.40;;;10.20;99.90;;;;;;4984236;28;20365;-70
2023/01/13 03:29:52;;;;;;;1.63;0.40;;;10.30;99.90;;;;;;4978596;28;20518;-70
2023/01/13 03:32:41;;;;;;;1.50;0.40;;;10.30;99.90;;;;;;4976551;28;20598;-70
2023/01/13 03:35:21;;;;;;;2.65;0.40;;;10.20;99.90;;;;;;4981372;28;20121;-69
2023/01/13 03:37:52;;;;;;;4.03;0.47;;;10.30;99.90;;;;;;4973130;28;20034;-69
2023/01/13 03:40:24;;;;;;;3.00;0.93;;;10.20;99.90;;;;;;4987729;28;20030;-70
2023/01/13 03:45:49;;;;;;;4.30;0.50;;;10.30;99.90;;;;;;5033954;28;20167;-69
2023/01/13 03:48:18;;;;;;;3.22;0.75;;;10.30;99.90;;;;;;5047316;28;20021;-69
2023/01/13 03:50:50;;;;;;;3.43;0.60;;;10.30;99.90;;;;;;5044091;28;20116;-70
2023/01/13 03:53:23;;;;;;;1.83;0.50;;;10.30;99.90;;;;;;5038378;28;20394;-69
2023/01/13 03:55:52;;;;;;;2.90;0.40;;;10.20;99.90;;;;;;5034833;28;20086;-69
2023/01/13 03:58:23;;;;;;;3.55;0.50;;;10.20;99.90;;;;;;5047716;28;20040;-69
2023/01/13 04:01:02;;;;;;;1.48;0.30;;;10.10;99.90;;;;;;5039841;28;20037;-69
2023/01/13 04:03:40;;;;;;;2.58;0.50;;;10.10;99.90;;;;;;5033254;28;20104;-70
2023/01/13 04:06:17;;;;;;;2.17;0.50;;;10.10;99.90;;;;;;5033757;28;20041;-70
2023/01/13 04:09:03;;;;;;;5.20;0.35;;;10.10;99.90;;;;;;5044806;28;20525;-70
2023/01/13 04:11:42;;;;;;;1.77;0.50;;;10.00;99.90;;;;;;5042682;28;20033;-70
2023/01/13 04:14:10;;;;;;;2.75;0.80;;;10.10;99.90;;;;;;5040094;28;20025;-70
2023/01/13 04:16:36;;;;;;;0.95;0.38;;;10.00;99.90;;;;;;5042165;28;20474;-70
2023/01/13 04:19:01;;;;;;;2.08;0.60;;;10.00;99.90;;;;;;5040271;28;20025;-70
2023/01/13 04:21:28;;;;;;;1.00;0.35;;;10.00;99.90;;;;;;5048502;28;20393;-70
2023/01/13 04:23:54;;;;;;;1.83;0.30;;;10.00;99.90;;;;;;5038993;28;20187;-70
2023/01/13 04:26:22;;;;;;;3.30;0.57;;;10.00;99.90;;;;;;5049070;28;20106;-70
2023/01/13 04:28:47;;;;;;;3.45;0.73;;;10.00;99.90;;;;;;5039216;28;20037;-69
2023/01/13 04:31:13;;;;;;;2.17;0.50;;;10.00;99.90;;;;;;5039290;28;20160;-70
2023/01/13 04:33:39;;;;;;;2.25;0.50;;;9.90;99.90;;;;;;5043955;28;20550;-70
2023/01/13 04:36:05;;;;;;;0.77;0.50;;;9.90;99.90;;;;;;5041786;28;20514;-70
2023/01/13 04:38:30;;;;;;;1.60;0.47;;;9.90;99.90;;;;;;5042693;28;20052;-70
2023/01/13 04:40:56;;;;;;;3.55;0.65;;;9.80;99.90;;;;;;5042191;28;20036;-71
2023/01/13 04:43:22;;;;;;;3.35;0.65;;;9.80;99.90;;;;;;5039688;28;20160;-70
2023/01/13 04:45:47;;;;;;;2.03;0.50;;;10.00;99.90;;;;;;5040986;28;20433;-71
2023/01/13 04:48:13;;;;;;;1.17;0.45;;;10.00;99.90;;;;;;5037405;28;20444;-70
2023/01/13 04:50:39;;;;;;;2.08;0.40;;;10.00;99.90;;;;;;5044065;28;20036;-71
2023/01/13 04:53:04;;;;;;;3.30;0.47;;;10.00;99.90;;;;;;5046628;28;20104;-71
2023/01/13 04:55:30;;;;;;;2.95;0.55;;;10.00;99.90;;;;;;5040290;28;20083;-71
2023/01/13 04:58:07;;;;;;;1.27;0.60;;;10.00;99.90;;;;;;5039231;28;20056;-71
2023/01/13 05:00:34;;;;;;;1.60;0.63;;;10.00;99.90;;;;;;5042386;28;20446;-70
2023/01/13 05:03:00;;;;;;;1.13;0.40;;;10.00;99.90;;;;;;5039165;28;20029;-71
2023/01/13 05:05:27;;;;;;;0.68;0.30;;;10.00;99.90;;;;;;5040632;28;20117;-70
2023/01/13 05:07:52;;;;;;;0.95;0.40;;;10.10;99.90;;;;;;5037275;28;20086;-70
2023/01/13 05:10:18;;;;;;;1.33;0.32;;;10.10;99.90;;;;;;5037097;28;20029;-69
2023/01/13 05:18:15;;;;;;;1.08;0.40;;;10.10;99.90;;;;;;5041489;28;20039;-71
2023/01/13 05:20:41;;;;;;;3.65;0.45;;;10.20;99.90;;;;;;5032977;28;20044;-70
2023/01/13 05:25:51;;;;;;;1.05;0.43;;;10.20;99.90;;;;;;5041044;28;20047;-70
2023/01/13 05:28:16;;;;;;;0.43;0.25;;;10.20;99.90;;;;;;5038279;28;20450;-70
2023/01/13 05:30:45;;;;;;;0.63;0.20;;;10.20;99.90;;;;;;5032477;28;20033;-70
2023/01/13 05:33:14;;;;;;;1.75;0.30;;;10.20;99.90;;;;;;5033270;28;20064;-69
2023/01/13 05:35:41;;;;;;;0.65;0.25;;;10.20;99.90;;;;;;5047030;28;20029;-69
2023/01/13 05:38:07;;;;;;;1.02;0.30;;;10.20;99.90;;;;;;5038681;28;20033;-69
2023/01/13 05:43:20;;;;;;;1.48;0.45;;;10.20;99.90;;;;;;5044394;28;20099;-70
2023/01/13 05:45:59;;;;;;;1.15;0.50;;;10.10;99.90;;;;;;5044127;28;20129;-70
2023/01/13 05:48:32;;;;;;;1.90;0.50;;;10.20;99.90;;;;;;5046500;28;20051;-70
2023/01/13 05:50:58;;;;;;;2.22;0.30;;;10.20;99.90;;;;;;5042806;28;20017;-70
2023/01/13 05:53:25;;;;;;;0.43;0.28;;;10.10;99.90;;;;;;5043407;28;20036;-70
2023/01/13 05:55:51;;;;;;;2.05;0.30;;;10.10;99.90;;;;;;5042267;28;20350;-71
2023/01/13 05:58:19;;;;;;;1.15;0.40;;;10.10;99.90;;;;;;5047020;28;20051;-71
2023/01/13 06:00:45;;;;;;;1.35;0.30;;;10.10;99.90;;;;;;5042954;28;20032;-70
2023/01/13 06:03:11;;;;;;;4.00;0.50;;;10.00;99.90;;;;;;5033542;28;20029;-71
2023/01/13 06:05:37;;;;;;;1.13;0.25;;;10.00;99.90;;;;;;5042725;28;20061;-71
2023/01/13 06:08:05;;;;;;;2.08;0.40;;;9.90;99.90;;;;;;5047049;28;20085;-71
2023/01/13 06:10:31;;;;;;;1.38;0.32;;;9.90;99.90;;;;;;5043242;28;20036;-70
2023/01/13 06:12:56;;;;;;;0.93;0.30;;;9.80;99.90;;;;;;5040184;28;20357;-71
2023/01/13 06:15:23;;;;;;;0.30;0.30;;;9.80;99.90;;;;;;5042737;28;20063;-70
2023/01/13 06:17:48;;;;;;;0.77;0.45;;;9.90;99.90;;;;;;5048483;28;20025;-71
2023/01/13 06:20:15;;;;;;;1.48;0.40;;;9.80;99.90;;;;;;5041371;28;20021;-71
2023/01/13 06:22:43;;;;;;;2.25;0.30;;;9.80;99.90;;;;;;5043575;28;20082;-70
2023/01/13 06:25:48;;;;;;;2.15;0.40;;;9.80;99.90;;;;;;5041660;28;20041;-71
2023/01/13 06:28:14;;;;;;;1.40;0.50;;;9.80;99.90;;;;;;5036854;28;20098;-71
2023/01/13 06:30:45;;;;;;;3.53;0.50;;;9.80;99.90;;;;;;5043935;28;20042;-72
2023/01/13 06:33:19;;;;;;;3.33;0.32;;;9.80;99.90;;;;;;5040059;28;20104;-70
2023/01/13 06:35:51;;;;;;;3.00;0.40;;;9.90;99.90;;;;;;5043397;28;20522;-70
2023/01/13 06:38:20;;;;;;;2.70;0.50;;;9.90;99.90;;;;;;5047953;28;20034;-69
2023/01/13 06:40:46;;;;;;;2.83;0.30;;;10.00;99.90;;;;;;5042810;28;20057;-69
2023/01/13 06:43:14;;;;;;;2.05;0.30;;;10.00;99.90;;;;;;5040479;28;20473;-69
2023/01/13 06:45:48;;;;;;;4.70;0.55;;;10.00;99.90;;;;;;5043311;28;20029;-69
2023/01/13 06:48:14;;;;;;;0.85;0.20;;;10.00;99.90;;;;;;5037552;28;20077;-68
2023/01/13 06:50:41;;;;;;;1.58;0.30;;;10.00;99.90;;;;;;5048049;28;20515;-70
2023/01/13 06:53:07;;;;;;;0.93;0.50;;;9.90;99.90;;;;;;5040438;28;20025;-74
2023/01/13 06:55:32;;;;;;;1.35;0.60;;;9.90;99.90;;;;;;5044578;28;20041;-69
2023/01/13 06:57:58;;;;;;;2.13;0.50;;;9.90;99.90;;;;;;5044907;28;20580;-71
2023/01/13 07:00:25;;;;;;;7.10;0.93;;;9.90;99.90;;;;;;5043545;28;20032;-68
2023/01/13 07:02:50;;;;;;;6.18;1.13;;;9.90;99.90;;;;;;5043830;28;20028;-69
2023/01/13 07:05:17;;;;;;;2.33;0.63;;;9.80;99.90;;;;;;5042547;28;20294;-68
2023/01/13 07:07:43;;;;;;;6.32;0.98;;;9.80;99.90;;;;;;5038861;28;20441;-67
2023/01/13 07:10:12;;;;;;;1.35;0.30;;;9.80;99.90;;;;;;5040652;28;20120;-68
2023/01/13 07:15:24;;;;;;;0.20;0.20;;;9.80;99.90;;;;;;5046519;28;20056;-70
2023/01/13 07:17:50;;;;;;;1.17;0.40;;;9.80;99.90;;;;;;5051548;28;20025;-68
2023/01/13 07:20:16;;;;;;;1.23;0.38;;;9.80;99.90;;;;;;5048029;28;20091;-67
2023/01/13 07:22:41;;;;;;;0.55;0.30;;;9.70;99.90;;;;;;5043240;28;20029;-67
2023/01/13 07:25:08;;;;;;;1.27;0.40;;;9.80;99.90;;;;;;5047487;28;20025;-68
2023/01/13 07:27:33;;;;;;;2.42;0.30;;;9.70;99.90;;;;;;5043433;28;20083;-68
2023/01/13 07:29:59;;;;;;;1.92;0.45;;;9.70;99.90;;;;;;5046349;28;20071;-69
2023/01/13 07:32:24;;;;;;;3.92;0.30;;;9.70;99.90;;;;;;5045811;28;20057;-67
2023/01/13 07:34:50;;;;;;;1.25;0.30;;;9.60;99.90;;;;;;5050891;28;20532;-68
2023/01/13 07:37:16;;;;;;;1.48;0.20;;;9.60;99.90;;;;;;5043631;28;20021;-68
2023/01/13 07:39:43;;;;;;;0.75;0.20;;;9.70;99.90;;;;;;5048508;28;20021;-68
2023/01/13 07:44:54;;;;;;;0.77;0.13;;;9.90;99.90;;;;;;5042686;28;20039;-68
2023/01/13 07:47:22;;;;;;;0.40;0.20;;;9.90;99.90;;;;;;5041965;28;20025;-68
2023/01/13 07:49:48;;;;;;;1.55;0.32;;;9.90;99.90;;;;;;5036265;28;20028;-67
2023/01/13 07:52:13;;;;;;;1.13;0.30;;;10.00;99.90;;;;;;5049720;28;20060;-67
2023/01/13 07:54:39;;;;;;;1.20;0.30;;;10.00;99.90;;;;;;5050340;28;20052;-68
2023/01/13 07:57:05;;;;;;;0.30;0.20;;;9.90;99.90;;;;;;5049442;28;20032;-67
2023/01/13 07:59:31;;;;;;;1.98;0.63;;;9.90;99.90;;;;;;5043272;28;20056;-67
2023/01/13 08:01:56;;;;;;;1.40;0.60;;;9.90;99.90;;;;;;5046607;28;20036;-68
2023/01/13 08:04:22;;;;;;;0.77;0.30;;;10.00;99.90;;;;;;5049605;28;20037;-68
2023/01/13 08:06:48;;;;;;;0.20;0.20;;;10.00;99.90;;;;;;5045256;28;20482;-67
2023/01/13 08:09:13;;;;;;;0.40;0.10;;;10.10;99.90;;;;;;5037617;28;20080;-67
2023/01/13 08:11:39;;;;;;;4.13;0.30;;;10.20;99.90;;;;;;5049964;28;20037;-68
2023/01/13 08:14:05;;;;;;;0.47;0.20;;;10.30;99.90;;;;;;5045499;28;20064;-68
2023/01/13 08:16:32;;;;;;;0.73;0.25;;;10.40;99.90;;;;;;5043847;28;20108;-68
2023/01/13 08:18:58;;;;;;;0.73;0.20;;;10.40;99.90;;;;;;5037632;28;20056;-68
2023/01/13 08:21:24;;;;;;;0.70;0.30;;;10.40;99.90;;;;;;5049530;28;20493;-68
2023/01/13 08:23:49;;;;;;;0.32;0.20;;;10.50;99.90;;;;;;5045377;28;20036;-67
2023/01/13 08:26:16;;;;;;;0.50;0.20;;;10.50;99.90;;;;;;5041493;28;20358;-68
2023/01/13 08:28:42;;;;;;;0.85;0.30;;;10.50;99.90;;;;;;5040750;28;20037;-68
2023/01/13 08:31:14;;;;;;;0.82;0.20;;;10.60;99.90;;;;;;5048175;28;20028;-68
2023/01/13 08:33:41;;;;;;;0.10;0.00;;;10.60;99.90;;;;;;5039615;28;20095;-68
2023/01/13 08:36:08;;;;;;;0.40;0.17;;;10.60;99.90;;;;;;5038468;28;20029;-68
2023/01/13 08:38:35;;;;;;;1.05;0.20;;;10.60;99.90;;;;;;5045619;28;20035;-68
2023/01/13 08:41:07;;;;;;;1.02;0.30;;;10.50;99.90;;;;;;5048911;28;20333;-68
2023/01/13 08:43:32;;;;;;;2.70;1.15;;;10.20;99.90;;;;;;5045612;28;20091;-68
2023/01/13 08:46:00;;;;;;;1.50;0.40;;;10.00;99.90;;;;;;5049056;28;20126;-69
2023/01/13 08:48:26;;;;;;;11.75;0.80;;;9.70;99.90;;;;;;5038743;28;20036;-68
2023/01/13 08:50:53;;;;;;;3.80;0.80;;;9.40;99.90;;;;;;5039265;28;20109;-68
2023/01/13 08:53:19;;;;;;;1.15;0.20;;;9.20;99.90;;;;;;5039638;28;20091;-67
2023/01/13 08:55:45;;;;;;;0.73;0.20;;;9.10;99.90;;;;;;5045044;28;20033;-67
2023/01/13 08:58:11;;;;;;;0.25;0.20;;;9.00;99.90;;;;;;5047838;28;20025;-68
2023/01/13 09:00:36;;;;;;;0.30;0.20;;;9.10;99.90;;;;;;5047639;28;20035;-67
2023/01/13 09:03:03;;;;;;;0.52;0.20;;;9.10;99.90;;;;;;5046892;28;20064;-68
2023/01/13 09:05:29;;;;;;;1.33;0.22;;;9.00;99.90;;;;;;5048342;28;20421;-67
2023/01/13 09:07:54;;;;;;;0.60;0.38;;;8.90;99.90;;;;;;5047487;28;20040;-68
2023/01/13 09:10:20;;;;;;;1.52;0.30;;;8.90;99.90;;;;;;5041280;28;20025;-68
2023/01/13 09:15:29;;;;;;;1.00;0.30;;;8.90;99.90;;;;;;5042205;28;20107;-68
2023/01/13 09:17:55;;;;;;;0.98;0.22;;;8.80;99.90;;;;;;5044763;28;20048;-68
2023/01/13 09:20:21;;;;;;;2.65;0.40;;;8.80;99.90;;;;;;5043834;28;20024;-69
2023/01/13 09:22:46;;;;;;;0.22;0.10;;;8.50;99.90;;;;;;5044026;28;20056;-69
2023/01/13 09:25:12;;;;;;;2.33;0.20;;;8.30;99.90;;;;;;5041567;28;20095;-69
2023/01/13 09:27:38;;;;;;;0.22;0.10;;;8.00;99.90;;;;;;5048501;28;20029;-68
2023/01/13 09:30:04;;;;;;;0.38;0.20;;;7.90;99.90;;;;;;5049306;28;20377;-69
2023/01/13 09:32:30;;;;;;;2.08;0.30;;;7.90;99.90;;;;;;5042517;28;20108;-69
2023/01/13 09:34:58;;;;;;;0.73;0.30;;;7.70;99.90;;;;;;5049290;28;20128;-68
2023/01/13 09:37:25;;;;;;;0.93;0.20;;;7.60;99.90;;;;;;5046819;28;20124;-68
2023/01/13 09:39:50;;;;;;;0.50;0.10;;;7.60;99.90;;;;;;5045587;28;20025;-68
2023/01/13 09:45:06;;;;;;;1.58;0.30;;;7.60;99.90;;;;;;5045493;28;20091;-69
2023/01/13 09:48:04;;;;;;;1.17;0.25;;;7.80;99.90;;;;;;5042987;28;20470;-68
2023/01/13 09:50:40;;;;;;;0.40;0.20;;;7.90;99.90;;;;;;5048980;28;20037;-68
2023/01/13 09:53:13;;;;;;;1.55;0.20;;;8.10;99.90;;;;;;5039179;28;20043;-67
2023/01/13 09:55:39;;;;;;;0.45;0.10;;;8.30;99.90;;;;;;5045927;28;20442;-69
2023/01/13 09:58:17;;;;;;;0.70;0.28;;;8.50;99.90;;;;;;5043777;28;20054;-67
2023/01/13 10:00:52;;;;;;;3.08;0.20;;;8.50;99.90;;;;;;5045534;28;20504;-69
2023/01/13 10:03:29;;;;;;;0.00;0.00;;;8.60;99.90;;;;;;5051009;28;20096;-69
2023/01/13 10:06:03;;;;;;;2.40;0.30;;;8.60;99.90;;;;;;5045267;28;20033;-69
2023/01/13 10:08:32;;;;;;;1.45;0.30;;;8.60;99.90;;;;;;5051700;28;20025;-68
2023/01/13 10:13:54;;;;;;;0.93;0.17;;;8.80;99.90;;;;;;5041996;28;20032;-67
2023/01/13 10:16:51;;;;;;;1.25;0.20;;;8.70;99.90;;;;;;5049411;28;20053;-69
2023/01/13 10:19:17;;;;;;;0.52;0.20;;;8.70;99.90;;;;;;5041593;28;20025;-69
2023/01/13 10:21:58;;;;;;;0.30;0.10;;;8.70;99.90;;;;;;5044085;28;20064;-69
2023/01/13 10:24:32;;;;;;;0.63;0.15;;;8.60;99.90;;;;;;5050572;28;20082;-70
2023/01/13 10:27:11;;;;;;;0.98;0.20;;;8.50;99.90;;;;;;5050848;28;20417;-70
2023/01/13 10:29:37;;;;;;;3.67;0.30;;;8.40;99.90;;;;;;5043676;28;20021;-69
2023/01/13 10:32:03;;;;;;;0.82;0.25;;;8.40;99.90;;;;;;5046947;28;20024;-69
2023/01/13 10:34:28;;;;;;;1.40;0.30;;;8.40;99.90;;;;;;5041911;28;20029;-68
2023/01/13 10:37:07;;;;;;;1.90;0.60;;;8.50;99.90;;;;;;5048354;28;20040;-69
2023/01/13 10:39:44;;;;;;;3.15;0.50;;;8.50;99.90;;;;;;5048536;28;20044;-69
2023/01/13 10:42:15;;;;;;;1.95;0.40;;;8.60;99.90;;;;;;5051582;28;20522;-69
2023/01/13 10:44:49;;;;;;;2.40;0.20;;;8.60;99.90;;;;;;5050038;28;20451;-70
2023/01/13 10:47:35;;;;;;;1.45;0.30;;;8.70;99.90;;;;;;5050560;28;20036;-69
2023/01/13 10:50:12;;;;;;;2.35;0.20;;;8.70;99.90;;;;;;5038814;28;20104;-70
2023/01/13 10:52:53;;;;;;;2.75;0.35;;;8.80;99.90;;;;;;5048807;28;20037;-69
2023/01/13 10:55:27;;;;;;;3.15;0.38;;;8.80;99.90;;;;;;5043889;28;20207;-69
2023/01/13 10:57:53;;;;;;;4.53;0.45;;;8.70;99.90;;;;;;5042665;28;20158;-69
2023/01/13 11:00:33;;;;;;;2.75;0.30;;;8.80;99.90;;;;;;5048556;28;20592;-69
2023/01/13 11:03:19;;;;;;;1.10;0.50;;;8.60;99.90;;;;;;5046184;28;20078;-70
2023/01/13 11:05:53;;;;;;;1.65;0.80;;;8.60;99.90;;;;;;5041404;28;20025;-68
2023/01/13 11:08:25;;;;;;;3.13;0.35;;;8.40;99.90;;;;;;5042766;28;20488;-70
2023/01/13 11:10:55;;;;;;;3.45;0.55;;;8.20;99.90;;;;;;5042699;28;20040;-68
2023/01/13 11:13:35;;;;;;;3.75;0.63;;;8.00;99.90;;;;;;5042418;28;20593;-69
2023/01/13 11:16:11;;;;;;;2.03;0.57;;;8.00;99.90;;;;;;5042716;28;20069;-70
2023/01/13 11:19:01;;;;;;;11.07;3.47;;;7.90;99.90;;;;;;5039929;28;20037;-69
2023/01/13 11:21:59;;;;;;;3.53;1.23;;;7.90;99.90;;;;;;5035052;28;20037;-68
2023/01/13 11:24:50;;;;;;;1.42;0.40;;;7.90;99.90;;;;;;5032600;28;20072;-69
2023/01/13 11:27:40;;;;;;;1.08;0.57;;;7.90;99.90;;;;;;5041788;28;20084;-69
2023/01/13 11:30:08;;;;;;;;;;;7.80;99.90;;;;;;5039382;28;20451;-70
2023/01/13 11:32:40;;;;;;;3.13;1.02;;;7.70;99.90;;;;;;5047932;28;19908;-69
2023/01/13 11:35:27;;;;;;;4.72;0.77;;;7.70;99.90;;;;;;5047787;28;20033;-69
2023/01/13 11:38:00;;;;;;;3.80;0.40;;;7.70;99.90;;;;;;5040902;28;20041;-69
2023/01/13 11:40:49;;;;;;;2.60;0.32;;;7.70;99.90;;;;;;5044582;28;20025;-69
2023/01/13 11:43:28;;;;;;;0.83;0.40;;;7.60;99.90;;;;;;5028516;28;20042;-69
2023/01/13 11:45:57;;;;;;;2.22;0.40;;;7.50;99.90;;;;;;5037343;28;20405;-68
2023/01/13 11:48:26;;;;;;;1.17;0.35;;;7.60;99.90;;;;;;5043248;28;20028;-69
2023/01/13 11:51:13;;;;;;;0.80;0.35;;;7.60;99.90;;;;;;5045266;28;20512;-69
2023/01/13 11:53:47;;;;;;;1.85;0.40;;;7.60;99.90;;;;;;5041728;28;20075;-69
2023/01/13 11:56:56;;;;;;;2.65;0.60;;;7.70;99.90;;;;;;5036209;28;20115;-70
2023/01/13 11:59:46;;;;;;;1.83;0.50;;;7.70;99.90;;;;;;5045715;28;20658;-68
2023/01/13 12:02:27;;;;;;;3.25;0.68;;;7.90;99.90;;;;;;5037921;28;20029;-69
2023/01/13 12:04:55;;;;;;;;;;;8.00;99.90;;;;;;5044787;28;20033;-69
2023/01/13 12:07:26;;;;;;;1.13;0.30;;;8.00;99.90;;;;;;5042935;28;19924;-69
2023/01/13 12:10:08;;;;;;;1.15;0.60;;;8.00;99.90;;;;;;5046939;28;20142;-70
2023/01/13 12:12:52;;;;;;;3.47;0.60;;;8.00;99.90;;;;;;5041973;28;20529;-70
2023/01/13 12:15:21;;;;;;;3.25;0.75;;;7.90;99.90;;;;;;5041106;28;20448;-68
2023/01/13 12:18:05;;;;;;;6.45;1.35;;;7.90;99.90;;;;;;5039256;28;20040;-71
2023/01/13 12:20:59;;;;;;;3.70;0.50;;;7.90;99.90;;;;;;5041300;28;20373;-69
2023/01/13 12:23:31;;;;;;;1.95;0.38;;;7.90;99.90;;;;;;5041066;28;20076;-72
2023/01/13 12:26:15;;;;;;;2.17;0.73;;;7.90;99.90;;;;;;5046478;28;20466;-68
2023/01/13 12:28:44;;;;;;;2.90;0.60;;;8.00;99.90;;;;;;5046947;28;20520;-67
2023/01/13 12:31:10;;;;;;;4.78;0.68;;;8.10;99.90;;;;;;5046807;28;20037;-68
2023/01/13 12:34:00;;;;;;;2.47;1.10;;;8.20;99.90;;;;;;5049291;28;20151;-68
2023/01/13 12:37:02;;;;;;;1.23;0.40;;;8.20;99.90;;;;;;5042755;28;20077;-69
2023/01/13 12:39:53;;;;;;;1.48;0.40;;;8.40;99.90;;;;;;5039925;28;20027;-68
2023/01/13 12:45:15;;;;;;;5.50;1.02;;;8.60;99.90;;;;;;5045740;28;20063;-71
2023/01/13 12:47:42;;;;;;;1.73;0.60;;;8.70;99.90;;;;;;5038964;28;20466;-72
2023/01/13 12:50:26;;;;;;;3.60;1.00;;;8.90;99.90;;;;;;5040221;28;20031;-69
2023/01/13 12:52:53;;;;;;;6.28;1.45;;;9.10;99.90;;;;;;5038610;28;20099;-69
2023/01/13 12:55:23;;;;;;;5.28;1.05;;;9.20;99.90;;;;;;5040751;28;20029;-69
2023/01/13 12:58:13;;;;;;;2.97;1.10;;;9.10;99.90;;;;;;5043590;28;20358;-70
2023/01/13 13:00:38;;;;;;;5.47;0.70;;;9.10;99.90;;;;;;5039276;28;20036;-70
2023/01/13 13:03:10;;;;;;;8.07;1.25;;;9.00;99.90;;;;;;5037682;28;20021;-70
2023/01/13 13:06:01;;;;;;;7.90;1.05;;;9.00;99.90;;;;;;5043797;28;20117;-70
2023/01/13 13:08:50;;;;;;;6.53;1.55;;;9.00;99.90;;;;;;5046534;28;20044;-70
2023/01/13 13:14:10;;;;;;;3.47;0.80;;;9.00;99.90;;;;;;5038986;28;20436;-69
2023/01/13 13:16:45;;;;;;;7.72;1.15;;;8.90;99.90;;;;;;5040772;28;20037;-69
2023/01/13 13:19:17;;;;;;;10.32;1.75;;;8.90;99.90;;;;;;5041869;28;20025;-69
2023/01/13 13:22:10;;;;;;;3.85;0.93;;;9.00;99.90;;;;;;5035395;28;20025;-69
2023/01/13 13:24:36;;;;;;;6.60;1.05;;;9.00;99.90;;;;;;5047384;28;20036;-69
2023/01/13 13:27:23;;;;;;;8.68;1.40;;;9.10;99.90;;;;;;5040466;28;20028;-70
2023/01/13 13:29:59;;;;;;;5.93;1.02;;;9.10;99.90;;;;;;5038882;28;20025;-69
2023/01/13 13:32:36;;;;;;;6.55;1.20;;;9.10;99.90;;;;;;5042494;28;20029;-69
2023/01/13 13:35:26;;;;;;;4.80;1.15;;;9.10;99.90;;;;;;5045692;28;20060;-69
2023/01/13 13:49:15;;;;;;;5.35;1.40;;;9.30;99.90;;;;;;5037570;28;20031;-70
2023/01/13 13:51:51;;;;;;;5.40;1.07;;;9.30;99.90;;;;;;5039572;28;20104;-69
2023/01/13 13:54:20;;;;;;;5.30;0.93;;;9.20;99.90;;;;;;5040822;28;20068;-69
2023/01/13 13:56:47;;;;;;;6.75;1.00;;;9.30;99.90;;;;;;5037982;28;20029;-69
2023/01/13 13:59:25;;;;;;;5.18;1.00;;;9.40;99.90;;;;;;5046492;28;20033;-70
2023/01/13 14:02:00;;;;;;;6.90;0.98;;;9.40;99.90;;;;;;5038312;28;20098;-69
2023/01/13 14:04:29;;;;;;;7.30;1.10;;;9.40;99.90;;;;;;5044458;28;20033;-69
2023/01/13 14:06:59;;;;;;;4.32;1.27;;;9.30;99.90;;;;;;5045231;28;20036;-69
2023/01/13 14:09:27;;;;;;;4.30;0.80;;;9.30;99.90;;;;;;5047036;28;20502;-69
2023/01/13 14:11:59;;;;;;;5.28;0.57;;;9.10;99.90;;;;;;5043705;28;20101;-68